createdAt,value
2019-02-21T00:01:10.740Z,17.57
2019-02-21T00:03:39.345Z,17.17
2019-02-21T00:06:08.131Z,17.80
2019-02-21T00:08:36.922Z,17.80
2019-02-21T00:11:05.667Z,17.53
2019-02-21T00:13:34.347Z,17.00
2019-02-21T00:16:03.133Z,16.60
2019-02-21T00:18:31.926Z,17.13
2019-02-21T00:21:00.704Z,17.03
2019-02-21T00:23:29.375Z,16.30
2019-02-21T00:25:58.118Z,20.13
2019-02-21T00:28:27.218Z,16.80
2019-02-21T00:30:55.864Z,17.53
2019-02-21T00:33:24.580Z,18.90
2019-02-21T00:35:53.328Z,17.20
2019-02-21T00:38:22.111Z,16.73
2019-02-21T00:40:50.838Z,16.70
2019-02-21T00:43:19.530Z,17.30
2019-02-21T00:45:48.266Z,16.80
2019-02-21T00:48:16.963Z,16.67
2019-02-21T00:50:45.635Z,17.23
2019-02-21T00:53:14.425Z,16.40
2019-02-21T00:55:43.250Z,16.20
2019-02-21T00:58:12.038Z,15.27
2019-02-21T01:00:46.472Z,14.53
2019-02-21T01:03:10.964Z,14.83
2019-02-21T01:05:39.731Z,14.73
2019-02-21T01:08:09.092Z,16.10
2019-02-21T01:10:37.774Z,15.57
2019-02-21T01:13:06.458Z,15.40
2019-02-21T01:15:35.245Z,15.23
2019-02-21T01:18:04.277Z,15.27
2019-02-21T01:20:32.919Z,15.03
2019-02-21T01:23:02.158Z,14.47
2019-02-21T01:25:31.144Z,14.40
2019-02-21T01:28:00.246Z,15.00
2019-02-21T01:30:28.885Z,15.83
2019-02-21T01:32:57.551Z,15.10
2019-02-21T01:35:26.260Z,15.50
2019-02-21T01:37:54.939Z,16.13
2019-02-21T01:40:23.665Z,15.80
2019-02-21T01:42:52.455Z,16.80
2019-02-21T01:45:40.552Z,16.73
2019-02-21T01:48:09.236Z,15.53
2019-02-21T01:50:38.148Z,16.23
2019-02-21T01:53:07.263Z,15.90
2019-02-21T01:55:35.908Z,15.87
2019-02-21T01:58:04.735Z,15.83
2019-02-21T02:00:33.479Z,16.27
2019-02-21T02:03:02.266Z,16.40
2019-02-21T02:05:30.850Z,16.37
2019-02-21T02:07:59.635Z,15.53
2019-02-21T02:10:28.459Z,16.20
2019-02-21T02:12:57.554Z,17.70
2019-02-21T02:15:26.555Z,16.30
2019-02-21T02:17:55.741Z,17.67
2019-02-21T02:20:24.486Z,15.67
2019-02-21T02:22:53.590Z,16.83
2019-02-21T02:25:22.205Z,15.00
2019-02-21T02:27:50.950Z,15.93
2019-02-21T02:30:19.651Z,16.13
2019-02-21T02:32:48.424Z,15.17
2019-02-21T02:35:17.351Z,15.47
2019-02-21T02:37:46.106Z,14.53
2019-02-21T02:40:14.929Z,14.97
2019-02-21T02:42:43.606Z,14.43
2019-02-21T02:45:12.402Z,14.53
2019-02-21T02:47:41.043Z,15.60
2019-02-21T02:50:09.892Z,13.80
2019-02-21T02:52:38.737Z,14.37
2019-02-21T02:55:07.546Z,14.40
2019-02-21T02:57:36.302Z,14.77
2019-02-21T03:00:08.199Z,15.10
2019-02-21T03:02:36.938Z,15.20
2019-02-21T03:05:07.158Z,14.37
2019-02-21T03:07:35.841Z,15.00
2019-02-21T03:10:10.322Z,13.93
2019-02-21T03:12:39.044Z,15.97
2019-02-21T03:15:08.699Z,14.30
2019-02-21T03:17:37.371Z,15.00
2019-02-21T03:20:08.772Z,14.47
2019-02-21T03:22:37.467Z,13.47
2019-02-21T03:25:07.449Z,15.67
2019-02-21T03:27:36.209Z,12.93
2019-02-21T03:30:11.637Z,14.07
2019-02-21T03:32:37.060Z,13.83
2019-02-21T03:35:07.674Z,14.60
2019-02-21T03:37:36.397Z,14.43
2019-02-21T03:40:07.923Z,13.70
2019-02-21T03:42:36.677Z,14.70
2019-02-21T03:45:08.725Z,13.83
2019-02-21T03:47:37.996Z,13.80
2019-02-21T03:50:09.071Z,14.07
2019-02-21T03:52:37.711Z,13.30
2019-02-21T03:55:07.959Z,15.17
2019-02-21T03:57:36.863Z,15.20
2019-02-21T04:00:11.429Z,14.93
2019-02-21T04:02:40.135Z,14.40
2019-02-21T04:05:09.008Z,14.13
2019-02-21T04:07:37.647Z,13.10
2019-02-21T04:10:08.475Z,13.27
2019-02-21T04:12:37.322Z,14.43
2019-02-21T04:15:09.142Z,14.93
2019-02-21T04:17:37.956Z,16.80
2019-02-21T04:20:10.329Z,13.90
2019-02-21T04:22:38.964Z,16.57
2019-02-21T04:25:07.695Z,14.03
2019-02-21T04:27:36.315Z,15.00
2019-02-21T04:30:05.765Z,16.27
2019-02-21T04:32:36.238Z,14.40
2019-02-21T04:35:06.391Z,14.43
2019-02-21T04:37:35.016Z,13.80
2019-02-21T04:40:04.338Z,14.57
2019-02-21T04:42:33.674Z,16.10
2019-02-21T04:45:02.594Z,15.37
2019-02-21T04:47:31.482Z,16.00
2019-02-21T04:50:00.145Z,16.40
2019-02-21T04:52:30.550Z,17.13
2019-02-21T04:54:59.131Z,14.27
2019-02-21T04:57:27.859Z,15.57
2019-02-21T04:59:56.417Z,15.97
2019-02-21T05:02:29.065Z,16.40
2019-02-21T05:04:55.449Z,17.43
2019-02-21T05:07:24.018Z,17.77
2019-02-21T05:09:57.951Z,17.03
2019-02-21T05:12:23.265Z,17.43
2019-02-21T05:14:51.850Z,18.10
2019-02-21T05:17:20.472Z,18.57
2019-02-21T05:19:49.083Z,19.43
2019-02-21T05:22:18.140Z,17.07
2019-02-21T05:24:46.823Z,18.30
2019-02-21T05:27:17.081Z,17.10
2019-02-21T05:29:45.678Z,18.07
2019-02-21T05:32:15.967Z,18.50
2019-02-21T05:34:58.558Z,16.77
2019-02-21T05:37:31.852Z,19.50
2019-02-21T05:40:04.940Z,19.33
2019-02-21T05:42:35.198Z,20.80
2019-02-21T05:45:17.713Z,20.47
2019-02-21T05:48:04.314Z,19.50
2019-02-21T05:50:50.714Z,20.57
2019-02-21T05:53:20.996Z,19.23
2019-02-21T05:55:51.523Z,21.33
2019-02-21T05:58:37.150Z,19.43
2019-02-21T06:01:10.204Z,22.07
2019-02-21T06:03:43.587Z,21.03
2019-02-21T06:06:13.852Z,18.60
2019-02-21T06:08:56.377Z,20.00
2019-02-21T06:11:29.322Z,20.50
2019-02-21T06:13:59.636Z,21.17
2019-02-21T06:16:36.056Z,21.80
2019-02-21T06:19:06.423Z,20.73
2019-02-21T06:21:36.737Z,22.00
2019-02-21T06:24:12.638Z,20.30
2019-02-21T06:26:42.965Z,23.50
2019-02-21T06:29:16.083Z,21.73
2019-02-21T06:31:44.679Z,21.40
2019-02-21T06:34:13.820Z,22.03
2019-02-21T06:36:42.422Z,22.23
2019-02-21T06:39:11.189Z,21.87
2019-02-21T06:41:39.830Z,22.97
2019-02-21T06:44:08.454Z,22.97
2019-02-21T06:46:37.040Z,25.00
2019-02-21T06:49:05.626Z,21.70
2019-02-21T06:51:34.771Z,22.57
2019-02-21T06:54:03.362Z,23.37
2019-02-21T06:56:32.446Z,21.80
2019-02-21T06:59:01.152Z,21.23
2019-02-21T07:01:29.864Z,22.80
2019-02-21T07:03:58.605Z,21.00
2019-02-21T07:06:31.789Z,21.70
2019-02-21T07:08:59.923Z,21.17
2019-02-21T07:11:28.983Z,21.60
2019-02-21T07:13:57.639Z,18.77
2019-02-21T07:16:26.657Z,19.80
2019-02-21T07:18:55.257Z,20.50
2019-02-21T07:21:24.003Z,20.47
2019-02-21T07:23:53.139Z,19.87
2019-02-21T07:26:21.786Z,18.77
2019-02-21T07:28:50.467Z,20.60
2019-02-21T07:31:28.096Z,21.00
2019-02-21T07:33:49.473Z,20.13
2019-02-21T07:36:19.465Z,21.90
2019-02-21T07:38:48.315Z,20.03
2019-02-21T07:41:18.695Z,19.20
2019-02-21T07:43:47.427Z,20.83
2019-02-21T07:46:16.066Z,19.23
2019-02-21T07:48:44.756Z,20.43
2019-02-21T07:51:13.676Z,21.00
2019-02-21T07:53:42.469Z,21.23
2019-02-21T07:56:11.213Z,20.07
2019-02-21T07:58:39.902Z,20.70
2019-02-21T08:01:08.991Z,19.40
2019-02-21T08:03:44.977Z,20.00
2019-02-21T08:06:08.719Z,19.87
2019-02-21T08:08:37.410Z,19.87
2019-02-21T08:11:07.266Z,20.00
2019-02-21T08:13:36.200Z,21.90
2019-02-21T08:16:05.343Z,21.40
2019-02-21T08:18:33.946Z,19.20
2019-02-21T08:21:02.907Z,20.20
2019-02-21T08:23:32.439Z,22.50
2019-02-21T08:26:01.495Z,20.83
2019-02-21T08:28:30.251Z,22.20
2019-02-21T08:30:58.940Z,21.13
2019-02-21T08:33:29.201Z,21.70
2019-02-21T08:35:58.062Z,22.60
2019-02-21T08:38:27.174Z,21.40
2019-02-21T08:40:57.198Z,20.50
2019-02-21T08:43:26.044Z,20.83
2019-02-21T08:45:57.539Z,21.57
2019-02-21T08:48:27.042Z,22.97
2019-02-21T08:50:55.571Z,23.43
2019-02-21T08:53:24.262Z,22.10
2019-02-21T08:55:52.982Z,23.30
2019-02-21T08:58:21.728Z,22.53
2019-02-21T09:00:50.470Z,21.50
2019-02-21T09:03:19.663Z,22.57
2019-02-21T09:05:49.793Z,24.70
2019-02-21T09:08:18.522Z,21.93
2019-02-21T09:10:47.864Z,23.97
2019-02-21T09:13:16.811Z,23.30
2019-02-21T09:15:46.531Z,25.40
2019-02-21T09:18:15.554Z,22.90
2019-02-21T09:20:44.239Z,23.37
2019-02-21T09:23:15.757Z,23.27
2019-02-21T09:25:44.826Z,24.57
2019-02-21T09:28:15.715Z,23.27
2019-02-21T09:30:44.087Z,24.43
2019-02-21T09:33:17.349Z,23.03
2019-02-21T09:35:43.062Z,22.60
2019-02-21T09:38:11.662Z,23.33
2019-02-21T09:40:42.675Z,23.60
2019-02-21T09:43:11.101Z,22.93
2019-02-21T09:45:42.209Z,25.17
2019-02-21T09:48:12.002Z,26.27
2019-02-21T09:50:40.808Z,22.90
2019-02-21T09:53:09.832Z,23.37
2019-02-21T09:55:38.471Z,24.00
2019-02-21T09:58:07.302Z,23.60
2019-02-21T10:00:36.134Z,23.60
2019-02-21T10:03:04.981Z,23.70
2019-02-21T10:05:33.664Z,23.87
2019-02-21T10:08:02.321Z,27.07
2019-02-21T10:10:30.991Z,24.33
2019-02-21T10:12:59.820Z,27.23
2019-02-21T10:15:31.300Z,27.23
2019-02-21T10:17:58.994Z,27.00
2019-02-21T10:20:27.782Z,26.80
2019-02-21T10:22:56.680Z,28.40
2019-02-21T10:25:27.805Z,27.60
2019-02-21T10:27:58.879Z,27.13
2019-02-21T10:30:26.939Z,27.17
2019-02-21T10:32:55.585Z,28.00
2019-02-21T10:35:24.333Z,27.10
2019-02-21T10:37:53.017Z,25.23
2019-02-21T10:40:22.127Z,27.90
2019-02-21T10:42:50.861Z,27.00
2019-02-21T10:45:21.774Z,27.80
2019-02-21T10:47:50.469Z,26.20
2019-02-21T10:50:20.340Z,29.90
2019-02-21T10:52:49.467Z,26.43
2019-02-21T10:55:18.807Z,29.07
2019-02-21T10:57:47.575Z,26.03
2019-02-21T11:00:30.373Z,25.83
2019-02-21T11:02:59.167Z,26.67
2019-02-21T11:05:28.217Z,28.50
2019-02-21T11:07:56.940Z,25.57
2019-02-21T11:10:31.666Z,24.33
2019-02-21T11:13:00.396Z,26.07
2019-02-21T11:15:29.143Z,24.80
2019-02-21T11:17:57.823Z,25.40
2019-02-21T11:20:26.504Z,23.73
2019-02-21T11:22:55.117Z,24.13
2019-02-21T11:25:24.126Z,25.37
2019-02-21T11:27:52.717Z,24.63
2019-02-21T11:30:23.030Z,24.00
2019-02-21T11:32:51.713Z,25.27
2019-02-21T11:35:20.510Z,23.13
2019-02-21T11:37:49.188Z,24.03
2019-02-21T11:40:18.280Z,23.10
2019-02-21T11:42:48.110Z,23.97
2019-02-21T11:45:18.345Z,25.20
2019-02-21T11:47:47.201Z,21.87
2019-02-21T11:50:22.102Z,23.17
2019-02-21T11:52:51.184Z,19.97
2019-02-21T11:55:25.393Z,19.27
2019-02-21T11:57:54.511Z,20.30
2019-02-21T12:00:30.745Z,19.57
2019-02-21T12:02:59.481Z,20.57
2019-02-21T12:05:31.027Z,18.60
2019-02-21T12:07:58.486Z,20.13
2019-02-21T12:10:27.198Z,20.00
2019-02-21T12:12:55.919Z,20.37
2019-02-21T12:15:24.642Z,19.83
2019-02-21T12:17:53.244Z,19.20
2019-02-21T12:20:22.112Z,18.97
2019-02-21T12:22:50.750Z,17.33
2019-02-21T12:25:22.561Z,19.03
2019-02-21T12:27:51.300Z,19.07
2019-02-21T12:30:20.734Z,19.53
2019-02-21T12:32:49.834Z,20.23
2019-02-21T12:35:29.178Z,19.83
2019-02-21T12:37:49.252Z,18.67
2019-02-21T12:40:19.983Z,17.07
2019-02-21T12:42:48.735Z,18.60
2019-02-21T12:45:22.035Z,18.23
2019-02-21T12:47:53.875Z,17.80
2019-02-21T12:50:21.149Z,17.60
2019-02-21T12:52:49.964Z,17.87
2019-02-21T12:55:26.954Z,18.17
2019-02-21T12:57:48.759Z,19.20
2019-02-21T13:00:21.456Z,17.90
2019-02-21T13:02:50.331Z,16.43
2019-02-21T13:05:19.127Z,17.40
2019-02-21T13:07:47.869Z,17.20
2019-02-21T13:10:18.839Z,17.57
2019-02-21T13:12:47.524Z,16.37
2019-02-21T13:15:16.573Z,18.00
2019-02-21T13:17:45.365Z,19.40
2019-02-21T13:20:15.203Z,19.40
2019-02-21T13:22:43.864Z,19.90
2019-02-21T13:25:15.420Z,20.70
2019-02-21T13:27:44.090Z,19.73
2019-02-21T13:30:15.228Z,20.70
2019-02-21T13:32:43.859Z,18.90
2019-02-21T13:35:12.648Z,21.20
2019-02-21T13:37:41.386Z,19.47
2019-02-21T13:40:12.884Z,19.90
2019-02-21T13:42:42.084Z,20.20
2019-02-21T13:45:13.058Z,22.27
2019-02-21T13:47:42.087Z,20.83
2019-02-21T13:50:18.247Z,19.93
2019-02-21T13:52:47.664Z,21.57
2019-02-21T13:55:16.420Z,20.63
2019-02-21T13:57:46.846Z,22.87
2019-02-21T14:00:20.647Z,20.80
2019-02-21T14:02:49.383Z,21.30
2019-02-21T14:05:18.567Z,20.73
2019-02-21T14:07:47.210Z,20.47
2019-02-21T14:10:15.970Z,22.60
2019-02-21T14:12:44.622Z,22.70
2019-02-21T14:15:16.266Z,21.50
2019-02-21T14:17:46.669Z,20.67
2019-02-21T14:20:15.778Z,21.33
2019-02-21T14:22:44.413Z,19.57
2019-02-21T14:25:13.098Z,20.93
2019-02-21T14:27:42.338Z,21.50
2019-02-21T14:30:21.461Z,20.97
2019-02-21T14:32:50.097Z,19.70
2019-02-21T14:35:20.051Z,19.73
2019-02-21T14:37:48.653Z,20.47
2019-02-21T14:40:17.865Z,20.30
2019-02-21T14:42:46.712Z,19.67
2019-02-21T14:45:20.849Z,19.97
2019-02-21T14:47:51.384Z,20.17
2019-02-21T14:50:19.934Z,21.53
2019-02-21T14:52:48.614Z,20.13
2019-02-21T14:55:17.968Z,20.43
2019-02-21T14:57:46.873Z,19.90
2019-02-21T15:00:27.019Z,21.37
2019-02-21T15:02:57.677Z,21.70
2019-02-21T15:05:25.874Z,20.70
2019-02-21T15:07:54.488Z,22.13
2019-02-21T15:10:23.070Z,19.90
2019-02-21T15:12:52.047Z,19.40
2019-02-21T15:15:25.818Z,21.37
2019-02-21T15:18:04.463Z,22.03
2019-02-21T15:20:35.819Z,20.47
2019-02-21T15:22:55.208Z,23.20
2019-02-21T15:25:24.051Z,21.97
2019-02-21T15:27:53.178Z,22.03
2019-02-21T15:30:23.390Z,22.80
2019-02-21T15:32:52.073Z,22.67
2019-02-21T15:35:20.661Z,22.60
2019-02-21T15:37:49.409Z,22.23
2019-02-21T15:40:18.074Z,22.87
2019-02-21T15:42:46.796Z,22.90
2019-02-21T15:45:26.761Z,21.63
2019-02-21T15:47:55.452Z,24.00
2019-02-21T15:50:24.144Z,22.43
2019-02-21T15:52:54.593Z,23.20
2019-02-21T15:55:23.507Z,23.23
2019-02-21T15:58:03.456Z,22.50
2019-02-21T16:00:24.041Z,21.40
2019-02-21T16:02:54.605Z,22.60
2019-02-21T16:05:23.492Z,19.30
2019-02-21T16:07:52.174Z,20.87
2019-02-21T16:10:25.249Z,18.10
2019-02-21T16:12:54.290Z,20.50
2019-02-21T16:15:23.499Z,19.67
2019-02-21T16:17:52.213Z,18.73
2019-02-21T16:20:21.284Z,18.60
2019-02-21T16:22:49.996Z,19.00
2019-02-21T16:25:34.986Z,21.27
2019-02-21T16:28:03.978Z,18.57
2019-02-21T16:30:32.595Z,18.87
2019-02-21T16:33:01.257Z,19.17
2019-02-21T16:35:30.457Z,21.13
2019-02-21T16:37:59.200Z,21.57
2019-02-21T16:40:27.929Z,20.60
2019-02-21T16:42:56.566Z,21.30
2019-02-21T16:45:25.544Z,21.90
2019-02-21T16:47:54.121Z,21.13
2019-02-21T16:50:29.844Z,20.87
2019-02-21T16:52:53.115Z,20.00
2019-02-21T16:55:25.038Z,21.57
2019-02-21T16:57:53.924Z,21.80
2019-02-21T17:00:23.675Z,21.33
2019-02-21T17:02:52.456Z,20.47
2019-02-21T17:05:21.514Z,20.37
2019-02-21T17:07:50.191Z,20.73
2019-02-21T17:10:18.959Z,22.13
2019-02-21T17:12:47.692Z,22.20
2019-02-21T17:15:19.714Z,22.83
2019-02-21T17:17:48.740Z,21.27
2019-02-21T17:20:19.081Z,22.73
2019-02-21T17:22:47.926Z,23.90
2019-02-21T17:25:16.953Z,23.13
2019-02-21T17:27:46.101Z,23.20
2019-02-21T17:30:18.920Z,22.53
2019-02-21T17:32:47.503Z,24.33
2019-02-21T17:35:16.393Z,25.10
2019-02-21T17:38:06.375Z,25.47
2019-02-21T17:40:35.117Z,27.43
2019-02-21T17:43:03.735Z,26.10
2019-02-21T17:45:32.384Z,26.60
2019-02-21T17:48:01.012Z,27.83
2019-02-21T17:50:29.753Z,27.17
2019-02-21T17:52:58.766Z,28.70
2019-02-21T17:55:27.431Z,26.23
2019-02-21T17:57:57.854Z,27.43
2019-02-21T18:00:31.223Z,26.90
2019-02-21T18:02:59.882Z,27.37
2019-02-21T18:05:28.516Z,28.10
2019-02-21T18:07:57.428Z,27.57
2019-02-21T18:10:26.047Z,28.87
2019-02-21T18:12:54.817Z,28.37
2019-02-21T18:15:23.558Z,28.33
2019-02-21T18:17:52.289Z,28.33
2019-02-21T18:20:20.983Z,33.30
2019-02-21T18:22:50.022Z,28.40
2019-02-21T18:25:24.999Z,31.63
2019-02-21T18:27:53.546Z,28.93
2019-02-21T18:30:22.323Z,29.30
2019-02-21T18:32:51.120Z,29.77
2019-02-21T18:35:19.721Z,30.80
2019-02-21T18:37:48.375Z,29.47
2019-02-21T18:40:20.735Z,30.17
2019-02-21T18:42:49.949Z,29.97
2019-02-21T18:45:18.695Z,30.97
2019-02-21T18:47:47.341Z,30.27
2019-02-21T18:50:16.090Z,31.87
2019-02-21T18:52:44.683Z,30.97
2019-02-21T18:55:13.902Z,30.27
2019-02-21T18:57:42.640Z,32.23
2019-02-21T19:00:24.172Z,29.30
2019-02-21T19:02:53.038Z,33.30
2019-02-21T19:05:22.541Z,33.40
2019-02-21T19:08:00.826Z,31.90
2019-02-21T19:10:22.614Z,33.57
2019-02-21T19:12:51.299Z,32.97
2019-02-21T19:15:20.917Z,32.13
2019-02-21T19:17:49.638Z,33.20
2019-02-21T19:20:19.496Z,33.70
2019-02-21T19:22:48.250Z,33.87
2019-02-21T19:25:17.030Z,33.63
2019-02-21T19:27:45.921Z,33.80
2019-02-21T19:30:17.693Z,34.03
2019-02-21T19:32:46.404Z,33.17
2019-02-21T19:35:15.882Z,34.07
2019-02-21T19:37:44.650Z,34.50
2019-02-21T19:40:14.395Z,32.67
2019-02-21T19:42:43.145Z,31.47
2019-02-21T19:45:12.171Z,34.10
2019-02-21T19:47:40.930Z,36.37
2019-02-21T19:50:10.153Z,35.57
2019-02-21T19:52:38.908Z,33.93
2019-02-21T19:55:11.715Z,33.00
2019-02-21T19:57:40.395Z,34.30
2019-02-21T20:00:12.335Z,36.47
2019-02-21T20:02:41.081Z,35.80
2019-02-21T20:05:10.006Z,34.33
2019-02-21T20:07:38.801Z,35.60
2019-02-21T20:10:08.832Z,34.97
2019-02-21T20:12:37.831Z,36.03
2019-02-21T20:15:11.315Z,36.23
2019-02-21T20:17:40.011Z,36.87
2019-02-21T20:20:11.844Z,36.70
2019-02-21T20:22:40.454Z,36.67
2019-02-21T20:25:09.182Z,35.93
2019-02-21T20:27:37.840Z,38.57
2019-02-21T20:30:09.810Z,34.43
2019-02-21T20:32:38.775Z,34.17
2019-02-21T20:35:07.996Z,33.60
2019-02-21T20:37:36.674Z,35.87
2019-02-21T20:40:07.982Z,34.60
2019-02-21T20:42:36.769Z,35.83
2019-02-21T20:45:09.231Z,35.30
2019-02-21T20:47:38.332Z,37.53
2019-02-21T20:50:10.094Z,34.50
2019-02-21T20:52:39.312Z,35.53
2019-02-21T20:55:09.832Z,36.10
2019-02-21T20:57:38.830Z,33.67
2019-02-21T21:00:13.196Z,34.03
2019-02-21T21:02:42.234Z,30.40
2019-02-21T21:05:10.934Z,32.27
2019-02-21T21:07:39.699Z,31.40
2019-02-21T21:10:12.360Z,32.27
2019-02-21T21:12:41.148Z,30.47
2019-02-21T21:15:12.278Z,34.03
2019-02-21T21:17:41.041Z,30.93
2019-02-21T21:20:16.961Z,28.30
2019-02-21T21:22:44.800Z,28.50
2019-02-21T21:25:17.853Z,29.10
2019-02-21T21:27:46.610Z,28.83
2019-02-21T21:30:16.426Z,29.17
2019-02-21T21:32:45.378Z,29.00
2019-02-21T21:35:14.383Z,27.13
2019-02-21T21:37:43.042Z,28.67
2019-02-21T21:40:13.980Z,28.07
2019-02-21T21:42:42.767Z,29.13
2019-02-21T21:45:14.203Z,29.03
2019-02-21T21:47:42.850Z,28.73
2019-02-21T21:50:14.304Z,27.60
2019-02-21T21:52:43.341Z,29.00
2019-02-21T21:55:12.027Z,29.20
2019-02-21T21:57:40.941Z,29.10
2019-02-21T22:00:12.631Z,28.70
2019-02-21T22:02:41.299Z,29.23
2019-02-21T22:05:10.350Z,31.37
2019-02-21T22:07:38.986Z,30.80
2019-02-21T22:10:12.317Z,31.27
2019-02-21T22:12:41.114Z,34.13
2019-02-21T22:15:12.767Z,33.37
2019-02-21T22:17:42.179Z,35.77
2019-02-21T22:20:11.161Z,34.87
2019-02-21T22:22:40.294Z,35.50
2019-02-21T22:25:11.198Z,32.20
2019-02-21T22:27:39.778Z,36.67
2019-02-21T22:30:13.887Z,34.53
2019-02-21T22:32:42.566Z,38.47
2019-02-21T22:35:11.355Z,39.93
2019-02-21T22:37:40.008Z,34.70
2019-02-21T22:40:10.985Z,39.30
2019-02-21T22:42:39.572Z,38.30
2019-02-21T22:45:09.523Z,38.50
2019-02-21T22:47:38.178Z,37.27
2019-02-21T22:50:10.004Z,37.60
2019-02-21T22:52:38.580Z,37.93
2019-02-21T22:55:10.181Z,38.40
2019-02-21T22:57:38.528Z,40.47
2019-02-21T23:00:31.430Z,40.33
2019-02-21T23:03:01.527Z,38.03
2019-02-21T23:05:52.959Z,40.80
2019-02-21T23:08:43.535Z,40.23
2019-02-21T23:11:12.524Z,43.10
2019-02-21T23:13:41.182Z,42.60
2019-02-21T23:16:10.172Z,42.17
2019-02-21T23:18:39.009Z,43.93
2019-02-21T23:21:07.985Z,42.03
2019-02-21T23:23:36.799Z,41.17
2019-02-21T23:26:05.493Z,42.20
2019-02-21T23:28:34.519Z,40.70
2019-02-21T23:31:03.822Z,37.20
2019-02-21T23:33:34.037Z,42.43
2019-02-21T23:36:03.063Z,39.17
2019-02-21T23:38:31.737Z,44.00
2019-02-21T23:41:00.857Z,41.50
2019-02-21T23:43:31.487Z,41.40
2019-02-21T23:46:00.140Z,45.87
2019-02-21T23:48:28.826Z,44.00
2019-02-21T23:50:57.952Z,45.83
2019-02-21T23:53:28.870Z,47.07
2019-02-21T23:55:57.626Z,42.77
2019-02-21T23:58:26.512Z,47.53
